首页
METAR-TAF:

METAR-TAF

机场 :

仙台機場

仙台, 日本

纬度: 38-08N, 经度: 140-55E, 海拔: 1米

当前天气观测

该预报发布于8小时和10分钟前的12:00 UTC
风速7节,风向东南
温度 23°C
湿度 94%
气压 1015 hPa
能见度10公里或以上
少量云层高于400英尺
散云层高于600英尺
多云层高于800英尺

METAR: RJSS 241200Z 14007KT 9999 FEW004 SCT006 BKN008 23/22 Q1015

时间: 05:10 (20:10 UTC)

预报

该预报发布于3小时和5分钟前的17:05 UTC
预报有效从24日的 18点(UTC)到 26日的 00点(UTC)
风速4节,风向西北
能見度: 8000
少量云层高于1000英尺
散云层高于2000英尺
多云层高于3000英尺
小阵雨
短暂存在
从 24日的 18点(UTC)到 25日的 06点(UTC)
能見度: 4000
少量云层高于500英尺
多云层高于800英尺
多云层高于1500英尺
小阵雨, 轻雾
成为
从 24日的 22点(UTC)到 25日的 00点(UTC)
风速6节,风向东北
短暂存在
从 25日的 06点(UTC)到 25日的 15点(UTC)
能見度: 3000
少量云层高于500英尺
多云层高于800英尺
多云层高于1500英尺
阵雨, 轻雾
短暂存在
从 25日的 15点(UTC)到 25日的 18点(UTC)
能見度: 4000
少量云层高于500英尺
多云层高于800英尺
多云层高于1500英尺
小阵雨, 轻雾

TAF: RJSS 241705Z 2418/2600 32004KT 8000 -SHRA FEW010 SCT020 BKN030 TEMPO 2418/2506 4000 -SHRA BR FEW005 BKN008 BKN015 BECMG 2422/2500 04006KT TEMPO 2506/2515 3000 SHRA BR FEW005 BKN008 BKN015 TEMPO 2515/2518 4000 -SHRA BR FEW005 BKN008 BKN015

超过4000个机场的气象观测和天气预报(METAR&TAF报告)。

可查询的气象台以黄色和红色小点在地图上表示。

将鼠标移到小点上方,可查看气象台名称。

然后点击查看天气观测和预报。

如需切换地图:点击带黑十字的绿色按钮放大地图;点击带横线的绿色按钮缩小地图;或者点击绿色箭头查看邻近地区的地图。


METAR-TAF: